Time;durP1;ratioP1;P1;durP2;ratioP2;P2;SDS_P1;SDS_P2;PMS_P1;PMS_P2;Temp;Humidity;BMP_temperature;BMP_pressure;BME280_temperature;BME280_humidity;BME280_pressure;Samples;Min_cycle;Max_cycle;Signal;HPM_P1;HPM_P2
2023/08/16 00:02:18;;;;;;;1.08;0.80;;;18.20;62.60;;;;;;5021430;28;20044;-76
2023/08/16 00:04:45;;;;;;;0.85;0.75;;;18.20;62.80;;;;;;5021695;28;20086;-77
2023/08/16 00:07:11;;;;;;;2.92;1.15;;;18.20;62.90;;;;;;5026621;28;20049;-77
2023/08/16 00:09:39;;;;;;;1.05;0.80;;;18.10;62.90;;;;;;5017874;28;20045;-77
2023/08/16 00:12:06;;;;;;;0.95;0.80;;;18.10;63.00;;;;;;5002426;28;20076;-77
2023/08/16 00:14:32;;;;;;;1.75;0.90;;;18.10;63.10;;;;;;5007364;28;20381;-77
2023/08/16 00:16:58;;;;;;;1.70;0.90;;;18.00;63.20;;;;;;5004717;28;20036;-77
2023/08/16 00:19:25;;;;;;;1.30;0.88;;;18.00;63.30;;;;;;5002746;28;20029;-77
2023/08/16 00:21:51;;;;;;;1.27;0.90;;;18.00;63.10;;;;;;5001449;28;20080;-77
2023/08/16 00:24:16;;;;;;;1.23;1.10;;;18.00;62.90;;;;;;5000469;28;20053;-76
2023/08/16 00:26:43;;;;;;;1.35;0.80;;;17.90;62.70;;;;;;5016920;28;20064;-76
2023/08/16 00:29:09;;;;;;;0.90;0.70;;;17.90;63.00;;;;;;5016827;28;20034;-76
2023/08/16 00:31:35;;;;;;;1.30;0.80;;;17.80;63.30;;;;;;4984197;28;20464;-76
2023/08/16 00:34:00;;;;;;;2.05;0.68;;;17.80;63.90;;;;;;5000710;28;20485;-76
2023/08/16 00:36:26;;;;;;;1.70;0.70;;;17.80;63.70;;;;;;5017392;28;20125;-75
2023/08/16 00:38:52;;;;;;;1.25;1.00;;;17.70;63.70;;;;;;5001369;28;20076;-76
2023/08/16 00:41:19;;;;;;;0.82;0.80;;;17.70;63.80;;;;;;5017801;28;20045;-75
2023/08/16 00:43:44;;;;;;;1.35;0.80;;;17.70;63.80;;;;;;5017421;28;20045;-76
2023/08/16 00:46:12;;;;;;;1.95;0.73;;;17.70;63.90;;;;;;5017699;28;20091;-76
2023/08/16 00:48:41;;;;;;;2.05;0.90;;;17.70;63.90;;;;;;5001295;28;20056;-76
2023/08/16 00:51:08;;;;;;;1.67;0.70;;;17.70;64.00;;;;;;5017325;28;20041;-76
2023/08/16 00:53:34;;;;;;;1.00;0.60;;;17.60;63.90;;;;;;5001365;28;20424;-76
2023/08/16 00:56:01;;;;;;;0.68;0.60;;;17.60;63.90;;;;;;5017341;28;20048;-75
2023/08/16 00:58:27;;;;;;;2.42;0.80;;;17.60;63.90;;;;;;5017433;28;20038;-76
2023/08/16 01:00:53;;;;;;;0.80;0.52;;;17.60;63.90;;;;;;5017196;28;20488;-76
2023/08/16 01:03:19;;;;;;;1.15;0.80;;;17.60;63.90;;;;;;5000377;28;20501;-76
2023/08/16 01:05:45;;;;;;;1.50;0.80;;;17.50;63.70;;;;;;5000789;28;20087;-76
2023/08/16 01:08:11;;;;;;;0.77;0.68;;;17.50;63.50;;;;;;4984597;28;20132;-76
2023/08/16 01:10:48;;;;;;;1.63;0.73;;;17.50;63.40;;;;;;5016961;28;20059;-76
2023/08/16 01:13:40;;;;;;;1.15;0.75;;;17.50;63.50;;;;;;5017096;28;20084;-76
2023/08/16 01:16:08;;;;;;;1.33;0.90;;;17.40;63.50;;;;;;5016994;28;20449;-76
2023/08/16 01:18:37;;;;;;;0.80;0.80;;;17.30;63.60;;;;;;5017159;28;20448;-76
2023/08/16 01:21:05;;;;;;;1.17;0.98;;;17.30;63.60;;;;;;5017162;28;20365;-76
2023/08/16 01:23:45;;;;;;;0.80;0.70;;;17.30;63.70;;;;;;5016764;28;20049;-76
2023/08/16 01:26:34;;;;;;;0.90;0.80;;;17.30;63.70;;;;;;5016825;28;20041;-76
2023/08/16 01:29:02;;;;;;;0.82;0.60;;;17.20;63.80;;;;;;5016650;28;20051;-76
2023/08/16 01:31:28;;;;;;;1.55;1.05;;;17.20;64.00;;;;;;5016466;28;20570;-76
2023/08/16 01:33:54;;;;;;;1.15;0.60;;;17.20;64.20;;;;;;5016970;28;20073;-76
2023/08/16 01:36:19;;;;;;;1.00;0.77;;;17.10;64.30;;;;;;5016641;28;20503;-76
2023/08/16 01:38:45;;;;;;;0.77;0.75;;;17.10;64.40;;;;;;5000293;28;20037;-76
2023/08/16 01:41:29;;;;;;;1.55;1.23;;;17.10;64.50;;;;;;5016855;28;20045;-76
2023/08/16 01:43:56;;;;;;;1.20;0.80;;;17.10;64.50;;;;;;5000435;28;20045;-76
2023/08/16 01:46:24;;;;;;;1.35;0.98;;;17.10;64.50;;;;;;5016436;28;20052;-76
2023/08/16 01:48:51;;;;;;;2.67;0.80;;;17.00;64.40;;;;;;5016636;28;20045;-76
2023/08/16 01:51:17;;;;;;;1.67;0.90;;;17.00;64.20;;;;;;4984003;28;20045;-75
2023/08/16 01:53:43;;;;;;;1.10;0.80;;;17.00;64.20;;;;;;4984117;28;20037;-76
2023/08/16 01:56:08;;;;;;;1.10;0.80;;;17.00;64.40;;;;;;4983946;28;20477;-76
2023/08/16 01:58:34;;;;;;;3.10;0.90;;;17.00;64.50;;;;;;5016363;28;20037;-77
2023/08/16 02:01:00;;;;;;;2.33;0.60;;;16.90;64.60;;;;;;5016375;28;20042;-77
2023/08/16 02:03:26;;;;;;;1.17;0.88;;;16.90;64.60;;;;;;4983937;28;20041;-77
2023/08/16 02:05:52;;;;;;;1.25;0.95;;;16.90;64.40;;;;;;5000328;28;20044;-77
2023/08/16 02:08:17;;;;;;;0.73;0.63;;;16.90;64.20;;;;;;5016455;28;20511;-76
2023/08/16 02:10:43;;;;;;;1.77;0.95;;;16.90;64.40;;;;;;4999939;28;20087;-77
2023/08/16 02:13:09;;;;;;;1.42;0.77;;;16.90;64.40;;;;;;5000075;28;20041;-77
2023/08/16 02:15:34;;;;;;;2.85;0.65;;;16.80;64.50;;;;;;5016038;28;20037;-77
2023/08/16 02:18:00;;;;;;;2.00;0.95;;;16.80;64.50;;;;;;5016309;28;20066;-77
2023/08/16 02:20:26;;;;;;;1.27;0.60;;;16.80;64.60;;;;;;4999674;28;20400;-77
2023/08/16 02:22:51;;;;;;;1.35;0.82;;;16.80;64.50;;;;;;4999758;28;20397;-77
2023/08/16 02:25:17;;;;;;;0.93;0.70;;;16.80;64.00;;;;;;4983334;28;20199;-77
2023/08/16 02:27:42;;;;;;;1.02;0.65;;;16.70;63.90;;;;;;4999640;28;20045;-77
2023/08/16 02:30:09;;;;;;;2.13;1.13;;;16.70;64.10;;;;;;4999360;28;20505;-77
2023/08/16 02:32:36;;;;;;;1.42;1.00;;;16.70;64.30;;;;;;5016109;28;20120;-77
2023/08/16 02:35:03;;;;;;;1.55;1.13;;;16.60;64.10;;;;;;4999354;28;20485;-77
2023/08/16 02:37:30;;;;;;;1.70;1.10;;;16.60;64.40;;;;;;4999479;28;20041;-77
2023/08/16 02:39:56;;;;;;;2.05;1.10;;;16.60;64.40;;;;;;4999505;28;20045;-77
2023/08/16 02:42:21;;;;;;;0.85;0.73;;;16.60;64.60;;;;;;5015910;28;20088;-77
2023/08/16 02:44:47;;;;;;;2.75;1.20;;;16.60;64.90;;;;;;4983149;28;20041;-77
2023/08/16 02:47:13;;;;;;;2.65;1.45;;;16.50;65.00;;;;;;4999363;28;20048;-77
2023/08/16 02:49:39;;;;;;;2.10;1.35;;;16.50;65.50;;;;;;5015436;28;20084;-77
2023/08/16 02:52:04;;;;;;;4.25;1.38;;;16.50;65.10;;;;;;5015489;28;20450;-77
2023/08/16 02:54:30;;;;;;;1.42;1.05;;;16.50;64.90;;;;;;5015623;28;20049;-77
2023/08/16 02:56:56;;;;;;;0.93;0.85;;;16.50;64.80;;;;;;4982948;28;20528;-77
2023/08/16 02:59:22;;;;;;;2.78;1.20;;;16.50;64.80;;;;;;4999226;28;20039;-77
2023/08/16 03:01:48;;;;;;;1.02;0.80;;;16.50;64.80;;;;;;4999272;28;20497;-77
2023/08/16 03:04:14;;;;;;;1.55;1.00;;;16.50;64.80;;;;;;4983138;28;20129;-77
2023/08/16 03:06:39;;;;;;;1.55;1.10;;;16.50;64.70;;;;;;5015395;28;20527;-77
2023/08/16 03:09:05;;;;;;;1.77;1.10;;;16.50;64.70;;;;;;5015471;28;20084;-77
2023/08/16 03:11:31;;;;;;;1.60;1.20;;;16.40;64.50;;;;;;5015171;28;20080;-77
2023/08/16 03:13:56;;;;;;;2.88;1.35;;;16.50;64.60;;;;;;5015280;28;20423;-77
2023/08/16 03:16:22;;;;;;;1.98;1.00;;;16.40;64.50;;;;;;4982911;28;20045;-77
2023/08/16 03:18:48;;;;;;;1.45;1.05;;;16.40;64.50;;;;;;5015413;28;20049;-77
2023/08/16 03:21:13;;;;;;;1.30;1.00;;;16.40;64.40;;;;;;4982981;28;20373;-77
2023/08/16 03:23:39;;;;;;;2.00;1.10;;;16.40;64.40;;;;;;4999003;28;20123;-77
2023/08/16 03:26:05;;;;;;;2.33;1.13;;;16.40;64.50;;;;;;4983415;28;20045;-77
2023/08/16 03:28:30;;;;;;;1.55;1.20;;;16.40;64.60;;;;;;5019226;28;20067;-76
2023/08/16 03:30:56;;;;;;;3.10;1.63;;;16.30;64.60;;;;;;5002533;28;20060;-77
2023/08/16 03:33:22;;;;;;;2.15;1.27;;;16.30;64.70;;;;;;5002807;28;20099;-77
2023/08/16 03:35:47;;;;;;;3.40;1.60;;;16.30;64.90;;;;;;4986520;28;20404;-77
2023/08/16 03:38:13;;;;;;;3.83;2.08;;;16.30;65.00;;;;;;5019260;28;20030;-77
2023/08/16 03:40:39;;;;;;;3.13;2.22;;;16.30;65.00;;;;;;5018915;28;20076;-77
2023/08/16 03:43:04;;;;;;;2.22;1.75;;;16.30;65.00;;;;;;5002621;28;20052;-77
2023/08/16 03:45:30;;;;;;;3.33;2.00;;;16.30;65.10;;;;;;5018632;28;20045;-77
2023/08/16 03:47:57;;;;;;;2.33;1.50;;;16.30;65.10;;;;;;5018730;28;20041;-77
2023/08/16 03:50:23;;;;;;;2.03;1.33;;;16.30;65.20;;;;;;5002193;28;20037;-77
2023/08/16 03:52:48;;;;;;;1.77;1.38;;;16.30;65.10;;;;;;5002226;28;20116;-77
2023/08/16 03:55:14;;;;;;;1.65;1.35;;;16.30;65.10;;;;;;5018540;28;20056;-77
2023/08/16 03:57:40;;;;;;;1.95;1.58;;;16.30;65.00;;;;;;5018432;28;20041;-77
2023/08/16 04:00:11;;;;;;;1.52;1.25;;;16.20;65.00;;;;;;5002243;28;20045;-77
2023/08/16 04:02:38;;;;;;;2.63;1.60;;;16.20;65.00;;;;;;5018430;28;20558;-77
2023/08/16 04:05:12;;;;;;;3.38;1.60;;;16.20;64.80;;;;;;5002131;28;20041;-76
2023/08/16 04:07:38;;;;;;;2.25;1.70;;;16.20;64.60;;;;;;5018437;28;20049;-77
2023/08/16 04:10:05;;;;;;;1.52;1.30;;;16.20;64.60;;;;;;5018371;28;20045;-76
2023/08/16 04:12:30;;;;;;;1.90;1.50;;;16.10;64.70;;;;;;5018465;28;20472;-77
2023/08/16 04:14:56;;;;;;;1.48;1.30;;;16.10;64.80;;;;;;5018214;28;20041;-77
2023/08/16 04:17:22;;;;;;;2.80;2.00;;;16.10;64.90;;;;;;5001729;28;20037;-77
2023/08/16 04:19:47;;;;;;;1.90;1.48;;;16.10;65.00;;;;;;5018357;28;20045;-77
2023/08/16 04:22:13;;;;;;;1.80;1.20;;;16.10;65.00;;;;;;5001628;28;20045;-77
2023/08/16 04:24:39;;;;;;;2.15;1.35;;;16.10;65.00;;;;;;5001701;28;20067;-77
2023/08/16 04:27:05;;;;;;;2.10;1.70;;;16.00;64.80;;;;;;5018037;28;20037;-77
2023/08/16 04:29:31;;;;;;;2.53;1.50;;;16.00;64.80;;;;;;5001628;28;20057;-77
2023/08/16 04:31:56;;;;;;;1.90;1.48;;;16.00;64.80;;;;;;4985471;28;20485;-77
2023/08/16 04:34:22;;;;;;;2.45;2.25;;;15.90;64.90;;;;;;5001612;28;20045;-77
2023/08/16 04:36:48;;;;;;;1.77;1.35;;;16.00;64.90;;;;;;5017791;28;20101;-77
2023/08/16 04:39:14;;;;;;;3.20;1.92;;;15.90;64.90;;;;;;5000368;28;20033;-77
2023/08/16 04:41:39;;;;;;;3.03;1.85;;;15.90;64.90;;;;;;5001641;28;20350;-77
2023/08/16 04:44:05;;;;;;;1.92;1.20;;;15.90;64.90;;;;;;5001615;28;20033;-77
2023/08/16 04:46:31;;;;;;;2.47;1.75;;;15.90;65.00;;;;;;5018033;28;20436;-77
2023/08/16 04:48:57;;;;;;;2.22;1.67;;;15.90;65.20;;;;;;5001506;28;20170;-77
2023/08/16 04:51:22;;;;;;;2.17;1.73;;;15.80;65.20;;;;;;5017343;28;20125;-77
2023/08/16 04:53:48;;;;;;;2.55;1.85;;;15.90;65.30;;;;;;5017965;28;20043;-77
2023/08/16 04:56:14;;;;;;;2.22;1.70;;;15.90;65.50;;;;;;5001122;28;20041;-77
2023/08/16 04:58:39;;;;;;;2.50;2.03;;;15.80;65.50;;;;;;5001336;28;20095;-77
2023/08/16 05:01:05;;;;;;;3.90;2.72;;;15.80;65.50;;;;;;5017748;28;20049;-77
2023/08/16 05:03:31;;;;;;;2.88;1.90;;;15.80;65.50;;;;;;5017748;28;20045;-77
2023/08/16 05:06:04;;;;;;;5.25;3.20;;;15.80;66.10;;;;;;5017504;28;20794;-77
2023/08/16 05:08:33;;;;;;;3.67;3.17;;;15.80;65.80;;;;;;5017347;28;20045;-77
2023/08/16 05:10:58;;;;;;;4.18;3.58;;;15.80;66.00;;;;;;5017124;28;20124;-77
2023/08/16 05:13:24;;;;;;;6.90;3.97;;;15.80;66.20;;;;;;5001037;28;20124;-77
2023/08/16 05:15:50;;;;;;;5.45;3.67;;;15.80;66.60;;;;;;5001213;28;20179;-77
2023/08/16 05:18:16;;;;;;;4.63;3.20;;;15.80;66.30;;;;;;5017258;28;20033;-77
2023/08/16 05:20:42;;;;;;;3.72;3.22;;;15.80;66.40;;;;;;4984843;28;20111;-77
2023/08/16 05:23:07;;;;;;;3.53;2.50;;;15.70;66.70;;;;;;5000615;28;20045;-77
2023/08/16 05:25:35;;;;;;;3.72;3.20;;;15.70;67.00;;;;;;5000743;28;20091;-77
2023/08/16 05:28:01;;;;;;;5.07;3.60;;;15.70;67.50;;;;;;5016835;28;20048;-77
2023/08/16 05:30:27;;;;;;;3.88;3.47;;;15.70;67.80;;;;;;5000410;28;20049;-77
2023/08/16 05:32:54;;;;;;;4.47;3.97;;;15.70;68.10;;;;;;5016860;28;20511;-77
2023/08/16 05:35:20;;;;;;;5.13;4.10;;;15.70;68.40;;;;;;5017030;28;20041;-77
2023/08/16 05:37:46;;;;;;;3.55;3.25;;;15.70;68.60;;;;;;5016694;28;20071;-77
2023/08/16 05:40:12;;;;;;;3.28;2.78;;;15.70;68.70;;;;;;5000569;28;20046;-77
2023/08/16 05:42:38;;;;;;;3.50;3.05;;;15.80;68.90;;;;;;5000653;28;20081;-76
2023/08/16 05:45:04;;;;;;;3.00;2.70;;;15.80;69.00;;;;;;5000437;28;20084;-76
2023/08/16 05:47:30;;;;;;;4.30;2.53;;;15.80;69.30;;;;;;5000145;28;20045;-77
2023/08/16 05:49:57;;;;;;;3.38;2.85;;;15.80;69.70;;;;;;5016100;28;20037;-77
2023/08/16 05:52:23;;;;;;;3.60;3.13;;;15.90;70.00;;;;;;5016475;28;20056;-77
2023/08/16 05:54:48;;;;;;;4.65;3.30;;;15.90;70.30;;;;;;5000226;28;20038;-77
2023/08/16 05:57:14;;;;;;;4.28;3.88;;;16.00;71.10;;;;;;5016460;28;20068;-77
2023/08/16 05:59:40;;;;;;;3.90;3.35;;;16.00;72.10;;;;;;5016545;28;20084;-77
2023/08/16 06:02:06;;;;;;;5.78;3.22;;;16.20;73.10;;;;;;5016297;28;20507;-77
2023/08/16 06:04:33;;;;;;;3.33;3.03;;;16.40;73.50;;;;;;4999904;28;20037;-77
2023/08/16 06:07:00;;;;;;;6.90;3.70;;;16.60;73.60;;;;;;5016337;28;20396;-77
2023/08/16 06:09:25;;;;;;;4.35;3.92;;;16.90;73.60;;;;;;4999878;28;20049;-77
2023/08/16 06:11:51;;;;;;;5.28;3.60;;;17.10;73.30;;;;;;4999723;28;20102;-77
2023/08/16 06:14:17;;;;;;;4.38;3.55;;;17.40;72.90;;;;;;4999897;28;20405;-77
2023/08/16 06:16:43;;;;;;;4.07;3.67;;;17.80;72.60;;;;;;5015990;28;20033;-77
2023/08/16 06:19:10;;;;;;;4.30;3.60;;;18.10;72.20;;;;;;4999647;28;20060;-77
2023/08/16 06:21:36;;;;;;;4.28;3.88;;;18.50;71.90;;;;;;4999917;28;20045;-77
2023/08/16 06:24:02;;;;;;;4.20;3.42;;;18.80;71.00;;;;;;4999798;28;20064;-77
2023/08/16 06:26:28;;;;;;;5.65;3.80;;;19.10;70.60;;;;;;4983430;28;20049;-77
2023/08/16 06:28:54;;;;;;;7.15;3.20;;;19.50;69.80;;;;;;4999504;28;20095;-77
2023/08/16 06:31:19;;;;;;;5.70;3.33;;;19.90;69.30;;;;;;5015509;28;20053;-77
2023/08/16 06:33:45;;;;;;;4.45;2.75;;;20.20;68.70;;;;;;4999724;28;20085;-77
2023/08/16 06:36:11;;;;;;;4.80;3.40;;;20.60;68.00;;;;;;5015923;28;20489;-77
2023/08/16 06:38:37;;;;;;;5.68;3.10;;;21.10;67.10;;;;;;5015995;28;20038;-77
2023/08/16 06:41:02;;;;;;;4.03;2.95;;;21.40;65.90;;;;;;5016020;28;20485;-77
2023/08/16 06:43:28;;;;;;;5.05;3.30;;;21.80;65.50;;;;;;4999339;28;20404;-77
2023/08/16 06:45:54;;;;;;;5.47;3.50;;;22.00;64.30;;;;;;5015946;28;20132;-77
2023/08/16 06:48:19;;;;;;;5.20;3.20;;;22.20;64.10;;;;;;5015688;28;20610;-77
2023/08/16 06:50:45;;;;;;;5.53;3.25;;;22.40;63.20;;;;;;4999175;28;20048;-77
2023/08/16 06:53:11;;;;;;;3.72;2.58;;;22.70;62.80;;;;;;4999345;28;20072;-77
2023/08/16 06:55:37;;;;;;;3.53;2.65;;;22.90;61.80;;;;;;5015390;28;20124;-77
2023/08/16 06:58:05;;;;;;;5.57;2.65;;;23.10;61.50;;;;;;5015492;28;20041;-77
2023/08/16 07:00:31;;;;;;;6.68;3.53;;;23.30;60.70;;;;;;5014530;28;20098;-77
2023/08/16 07:02:58;;;;;;;4.65;2.50;;;23.40;60.00;;;;;;5014898;28;20064;-77
2023/08/16 07:05:26;;;;;;;3.03;2.50;;;23.50;59.60;;;;;;5015420;28;20049;-77
2023/08/16 07:07:52;;;;;;;4.72;2.50;;;23.70;59.90;;;;;;5015051;28;20045;-77
2023/08/16 07:10:18;;;;;;;4.13;2.50;;;23.90;59.50;;;;;;4998784;28;20389;-77
2023/08/16 07:12:45;;;;;;;4.55;2.55;;;24.10;58.90;;;;;;4983037;28;20048;-78
2023/08/16 07:15:11;;;;;;;5.22;2.60;;;24.30;58.60;;;;;;5015374;28;20056;-78
2023/08/16 07:17:40;;;;;;;6.78;2.75;;;24.50;58.30;;;;;;4998774;28;20041;-78
2023/08/16 07:20:07;;;;;;;5.70;2.97;;;24.50;57.40;;;;;;4999221;28;20136;-78
2023/08/16 07:22:37;;;;;;;4.63;3.03;;;24.50;57.50;;;;;;5015313;28;20382;-78
2023/08/16 07:25:04;;;;;;;6.07;2.92;;;24.60;57.20;;;;;;4998696;28;20045;-78
2023/08/16 07:27:30;;;;;;;7.18;5.10;;;24.50;57.50;;;;;;5015412;28;20148;-78
2023/08/16 07:29:56;;;;;;;6.18;4.10;;;24.50;56.90;;;;;;4998637;28;20124;-78
2023/08/16 07:32:21;;;;;;;6.00;3.67;;;24.40;57.00;;;;;;4998748;28;20057;-78
2023/08/16 07:34:47;;;;;;;5.32;2.88;;;24.40;57.20;;;;;;4998834;28;20080;-78
2023/08/16 07:37:13;;;;;;;4.55;2.35;;;24.40;57.10;;;;;;5015460;28;20061;-78
2023/08/16 07:39:40;;;;;;;4.32;2.38;;;24.40;57.00;;;;;;4999149;28;20068;-78
2023/08/16 07:42:07;;;;;;;4.47;2.70;;;24.40;57.10;;;;;;4998953;28;20068;-78
2023/08/16 07:44:36;;;;;;;6.82;2.60;;;24.40;57.20;;;;;;4998702;28;20046;-78
2023/08/16 07:47:02;;;;;;;5.32;2.63;;;24.40;57.70;;;;;;4998613;28;20068;-78
2023/08/16 07:49:29;;;;;;;4.18;2.10;;;24.40;57.60;;;;;;5015069;28;20401;-78
2023/08/16 07:51:58;;;;;;;4.18;2.05;;;24.60;57.70;;;;;;4982741;28;20420;-78
2023/08/16 07:54:24;;;;;;;5.47;2.33;;;24.70;57.00;;;;;;5014986;28;20531;-78
2023/08/16 07:56:51;;;;;;;4.85;2.30;;;24.90;57.10;;;;;;4998649;28;20044;-78
2023/08/16 07:59:17;;;;;;;5.40;2.25;;;25.00;56.00;;;;;;5014794;28;20045;-78
2023/08/16 08:01:43;;;;;;;4.63;2.25;;;25.10;55.30;;;;;;4998680;28;20033;-78
2023/08/16 08:04:12;;;;;;;4.60;1.83;;;25.10;54.90;;;;;;5015135;28;20104;-78
2023/08/16 08:06:37;;;;;;;5.13;1.98;;;25.10;55.50;;;;;;4998525;28;20033;-78
2023/08/16 08:09:04;;;;;;;3.60;1.58;;;25.20;54.80;;;;;;4998753;28;20573;-78
2023/08/16 08:11:30;;;;;;;3.00;1.98;;;25.20;54.40;;;;;;5014707;28;20044;-78
2023/08/16 08:13:57;;;;;;;5.53;1.90;;;25.20;54.50;;;;;;5001634;28;20068;-78
2023/08/16 08:16:23;;;;;;;7.78;2.58;;;25.20;55.20;;;;;;5018798;28;20052;-78
2023/08/16 08:18:49;;;;;;;3.45;2.17;;;25.40;54.70;;;;;;5018511;28;20366;-78
2023/08/16 08:21:15;;;;;;;5.00;2.15;;;25.40;53.90;;;;;;5002066;28;20052;-78
2023/08/16 08:23:41;;;;;;;3.92;1.80;;;25.30;53.70;;;;;;5018285;28;20120;-78
2023/08/16 08:26:06;;;;;;;2.85;1.42;;;25.30;54.10;;;;;;5018327;28;20451;-78
2023/08/16 08:28:32;;;;;;;4.53;1.50;;;25.30;53.70;;;;;;5018207;28;20038;-78
2023/08/16 08:31:04;;;;;;;4.50;1.88;;;25.20;53.40;;;;;;5017817;28;20521;-78
2023/08/16 08:33:30;;;;;;;6.65;2.20;;;25.10;52.90;;;;;;4985773;28;20041;-78
2023/08/16 08:35:59;;;;;;;3.00;1.85;;;25.10;53.60;;;;;;5017879;28;20048;-78
2023/08/16 08:38:25;;;;;;;4.57;1.83;;;25.10;54.70;;;;;;5001722;28;20041;-78
2023/08/16 08:40:58;;;;;;;3.60;1.80;;;25.10;53.70;;;;;;5017863;28;20480;-78
2023/08/16 08:43:32;;;;;;;3.33;1.30;;;25.30;53.70;;;;;;5017988;28;20084;-78
2023/08/16 08:45:58;;;;;;;4.82;1.58;;;25.30;53.80;;;;;;5018282;28;20045;-78
2023/08/16 08:48:26;;;;;;;3.90;1.90;;;25.40;53.20;;;;;;5001888;28;20071;-78
2023/08/16 08:50:54;;;;;;;2.55;1.33;;;25.40;53.30;;;;;;5014632;28;20052;-77
2023/08/16 08:53:25;;;;;;;3.90;1.77;;;25.40;53.00;;;;;;5037627;28;20103;-77
2023/08/16 08:55:52;;;;;;;3.53;1.50;;;25.40;52.40;;;;;;5020673;28;20029;-78
2023/08/16 08:58:20;;;;;;;4.18;1.80;;;25.30;52.60;;;;;;5020630;28;20045;-78
2023/08/16 09:00:46;;;;;;;4.88;1.75;;;25.40;53.30;;;;;;5020933;28;20037;-78
2023/08/16 09:03:12;;;;;;;4.65;1.75;;;25.50;53.30;;;;;;5020585;28;20045;-77
2023/08/16 09:05:40;;;;;;;3.70;1.63;;;25.60;52.90;;;;;;5037440;28;20053;-78
2023/08/16 09:08:07;;;;;;;5.00;1.83;;;25.70;52.20;;;;;;5037414;28;20041;-78
2023/08/16 09:10:36;;;;;;;2.92;1.42;;;25.70;52.30;;;;;;5036831;28;20051;-78
2023/08/16 09:13:08;;;;;;;3.75;1.40;;;25.70;52.70;;;;;;5036849;28;20048;-78
2023/08/16 09:15:34;;;;;;;6.28;1.30;;;25.80;52.80;;;;;;5020484;28;20075;-78
2023/08/16 09:18:09;;;;;;;3.40;1.20;;;25.80;51.40;;;;;;5020690;28;20072;-78
2023/08/16 09:20:36;;;;;;;4.70;1.13;;;25.90;51.60;;;;;;5036989;28;20523;-78
2023/08/16 09:23:02;;;;;;;3.75;1.42;;;25.90;51.90;;;;;;5036781;28;20460;-77
2023/08/16 09:25:31;;;;;;;3.58;1.00;;;26.00;51.30;;;;;;5003650;28;20040;-77
2023/08/16 09:27:58;;;;;;;3.53;1.33;;;26.10;51.10;;;;;;5036962;28;20037;-77
2023/08/16 09:30:30;;;;;;;3.58;1.20;;;26.20;51.00;;;;;;5020081;28;20106;-77
2023/08/16 09:32:56;;;;;;;3.28;1.27;;;26.20;49.40;;;;;;5036502;28;20041;-75
2023/08/16 09:35:32;;;;;;;5.53;2.70;;;26.10;49.50;;;;;;5021048;28;20485;-76
2023/08/16 09:37:59;;;;;;;2.67;0.93;;;26.00;49.70;;;;;;5016770;28;20049;-78
2023/08/16 09:40:25;;;;;;;5.55;1.35;;;25.90;49.30;;;;;;5016761;28;20073;-78
2023/08/16 09:42:52;;;;;;;3.40;1.02;;;25.80;49.60;;;;;;5028812;28;20557;-78
2023/08/16 09:45:32;;;;;;;3.13;1.95;;;25.90;49.30;;;;;;5036561;28;20041;-78
2023/08/16 09:48:00;;;;;;;2.45;0.95;;;25.90;50.00;;;;;;5036648;28;20127;-78
2023/08/16 09:50:27;;;;;;;3.53;0.82;;;25.90;50.20;;;;;;5020140;28;20064;-78
2023/08/16 09:52:53;;;;;;;1.65;0.90;;;26.10;49.30;;;;;;5036530;28;20041;-78
2023/08/16 09:55:26;;;;;;;2.28;0.65;;;26.20;49.40;;;;;;5036304;28;20500;-78
2023/08/16 09:57:54;;;;;;;4.43;0.93;;;26.40;47.60;;;;;;5036053;28;20033;-78
2023/08/16 10:00:22;;;;;;;1.45;0.70;;;26.50;47.90;;;;;;5036238;28;20052;-76
2023/08/16 10:02:49;;;;;;;3.35;0.80;;;26.50;47.30;;;;;;5019933;28;20049;-76
2023/08/16 10:05:16;;;;;;;2.35;0.82;;;26.50;46.50;;;;;;5014241;28;20048;-76
2023/08/16 10:07:42;;;;;;;1.48;0.40;;;26.60;46.20;;;;;;4983741;28;20045;-76
2023/08/16 10:10:13;;;;;;;1.95;0.60;;;26.60;45.40;;;;;;4999884;28;20045;-77
2023/08/16 10:12:39;;;;;;;2.03;0.73;;;26.60;46.50;;;;;;5016129;28;20040;-76
2023/08/16 10:15:05;;;;;;;2.10;0.65;;;26.70;46.70;;;;;;5016148;28;20042;-75
2023/08/16 10:17:35;;;;;;;0.93;0.50;;;26.70;46.20;;;;;;4983821;28;20091;-75
2023/08/16 10:20:06;;;;;;;1.27;0.40;;;26.70;45.30;;;;;;5016050;28;20044;-76
2023/08/16 10:22:39;;;;;;;2.53;0.65;;;26.70;45.30;;;;;;5016305;28;20458;-76
2023/08/16 10:25:13;;;;;;;2.92;0.75;;;26.70;44.30;;;;;;5019023;28;20123;-76
2023/08/16 10:27:42;;;;;;;2.38;0.80;;;26.60;45.20;;;;;;5019576;28;20106;-76
2023/08/16 10:30:13;;;;;;;1.85;0.80;;;26.50;45.50;;;;;;5019578;28;20095;-76
2023/08/16 10:32:43;;;;;;;2.88;0.90;;;26.40;47.50;;;;;;5034964;28;20041;-74
2023/08/16 10:35:09;;;;;;;2.78;1.00;;;26.40;47.50;;;;;;5033998;28;20045;-74
2023/08/16 10:37:35;;;;;;;1.02;0.60;;;26.40;46.80;;;;;;5034807;28;20045;-74
2023/08/16 10:40:01;;;;;;;3.13;0.93;;;26.50;46.30;;;;;;5016297;28;20057;-74
2023/08/16 10:42:27;;;;;;;1.73;0.57;;;26.50;45.50;;;;;;5031917;28;20392;-74
2023/08/16 10:44:53;;;;;;;2.22;0.73;;;26.50;46.50;;;;;;5035165;28;20554;-74
2023/08/16 10:47:29;;;;;;;1.15;0.50;;;26.60;47.30;;;;;;5018716;28;20041;-74
2023/08/16 10:49:55;;;;;;;2.05;0.60;;;26.60;46.80;;;;;;5018626;28;20110;-75
2023/08/16 10:52:28;;;;;;;3.25;0.68;;;26.80;46.40;;;;;;5019029;28;20049;-74
2023/08/16 10:54:56;;;;;;;4.70;0.70;;;26.90;46.40;;;;;;5008979;28;20503;-75
2023/08/16 10:57:26;;;;;;;1.70;0.55;;;26.90;45.40;;;;;;5019157;28;20041;-74
2023/08/16 11:00:06;;;;;;;1.38;0.70;;;26.90;44.60;;;;;;5021324;28;20175;-74
2023/08/16 11:02:32;;;;;;;2.35;0.70;;;26.90;45.20;;;;;;5021522;28;20045;-74
2023/08/16 11:05:03;;;;;;;2.78;0.70;;;26.90;45.30;;;;;;5019996;28;20094;-74
2023/08/16 11:07:29;;;;;;;2.53;0.70;;;26.90;45.40;;;;;;5018176;28;20469;-74
2023/08/16 11:10:01;;;;;;;1.17;0.60;;;27.00;45.20;;;;;;5015973;28;20063;-74
2023/08/16 11:12:31;;;;;;;1.98;0.65;;;27.00;45.70;;;;;;5016494;28;20128;-74
2023/08/16 11:14:57;;;;;;;2.67;0.77;;;27.10;45.70;;;;;;5008349;28;20044;-74
2023/08/16 11:17:27;;;;;;;2.90;1.10;;;27.20;45.20;;;;;;5005543;28;20033;-74
2023/08/16 11:19:53;;;;;;;1.05;0.50;;;27.20;45.20;;;;;;5008549;28;20064;-74
2023/08/16 11:22:22;;;;;;;3.35;1.08;;;27.20;44.40;;;;;;5011886;28;20500;-74
2023/08/16 11:24:49;;;;;;;0.88;0.30;;;27.20;44.10;;;;;;5027515;28;20048;-74
2023/08/16 11:27:24;;;;;;;1.20;0.57;;;27.20;44.20;;;;;;5011633;28;20045;-73
2023/08/16 11:29:51;;;;;;;2.58;0.77;;;27.20;44.40;;;;;;5011797;28;20736;-74
2023/08/16 11:32:37;;;;;;;1.55;0.77;;;27.20;44.50;;;;;;5010474;28;20128;-74
2023/08/16 11:35:11;;;;;;;3.20;0.90;;;27.20;44.40;;;;;;5010675;28;20048;-74
2023/08/16 11:37:40;;;;;;;1.27;0.60;;;27.20;45.40;;;;;;5011745;28;20041;-74
2023/08/16 11:40:10;;;;;;;1.58;0.70;;;27.20;44.10;;;;;;5028419;28;20045;-74
2023/08/16 11:42:36;;;;;;;2.45;0.57;;;27.20;44.80;;;;;;5028149;28;20037;-74
2023/08/16 11:45:14;;;;;;;1.77;0.80;;;27.30;44.70;;;;;;5026969;28;20102;-73
2023/08/16 11:47:40;;;;;;;6.95;1.75;;;27.30;44.30;;;;;;5029971;28;20045;-74
2023/08/16 11:50:09;;;;;;;1.90;0.85;;;27.30;44.20;;;;;;5015097;28;20063;-74
2023/08/16 11:52:35;;;;;;;1.80;0.45;;;27.30;43.80;;;;;;5031119;28;20033;-74
2023/08/16 11:55:06;;;;;;;1.75;0.82;;;27.20;44.50;;;;;;5030695;28;20037;-74
2023/08/16 11:57:33;;;;;;;2.47;1.05;;;27.20;43.10;;;;;;5031644;28;20112;-74
2023/08/16 12:00:03;;;;;;;1.42;0.40;;;27.10;43.50;;;;;;5015142;28;20075;-74
2023/08/16 12:02:29;;;;;;;1.65;0.60;;;27.10;43.60;;;;;;5031493;28;20059;-74
2023/08/16 12:04:54;;;;;;;1.25;0.40;;;27.00;43.00;;;;;;5031300;28;20033;-74
2023/08/16 12:07:20;;;;;;;0.65;0.50;;;26.90;42.60;;;;;;5015597;28;20044;-74
2023/08/16 12:09:49;;;;;;;2.65;0.60;;;26.80;43.00;;;;;;5030890;28;20041;-74
2023/08/16 12:12:15;;;;;;;1.08;0.50;;;26.80;43.80;;;;;;5030681;28;20465;-73
2023/08/16 12:14:40;;;;;;;1.63;0.50;;;26.80;43.80;;;;;;5030341;28;20037;-73
2023/08/16 12:17:06;;;;;;;2.30;0.80;;;26.80;43.10;;;;;;5030912;28;20036;-74
2023/08/16 12:19:32;;;;;;;0.90;0.47;;;26.80;42.70;;;;;;4999281;28;20045;-73
2023/08/16 12:21:58;;;;;;;1.73;0.70;;;26.80;42.50;;;;;;5014524;28;20076;-73
2023/08/16 12:24:23;;;;;;;2.90;1.08;;;26.80;42.10;;;;;;5031360;28;20365;-73
2023/08/16 12:26:49;;;;;;;2.72;0.77;;;26.80;42.60;;;;;;5015379;28;20037;-73
2023/08/16 12:29:15;;;;;;;0.93;0.50;;;26.70;42.50;;;;;;5014883;28;20041;-74
2023/08/16 12:31:42;;;;;;;1.70;0.70;;;26.60;43.40;;;;;;4998112;28;20052;-73
2023/08/16 12:34:08;;;;;;;1.73;0.80;;;26.70;43.30;;;;;;5029843;28;20111;-73
2023/08/16 12:36:33;;;;;;;2.03;0.80;;;26.60;43.50;;;;;;5014742;28;20049;-73
2023/08/16 12:38:59;;;;;;;1.55;0.82;;;26.50;43.20;;;;;;5030606;28;20037;-73
2023/08/16 12:41:26;;;;;;;1.58;0.90;;;26.40;44.70;;;;;;4998913;28;20037;-73
2023/08/16 12:43:52;;;;;;;2.15;0.60;;;26.40;44.80;;;;;;5030316;28;20103;-73
2023/08/16 12:46:17;;;;;;;1.15;0.68;;;26.30;44.50;;;;;;4998429;28;20049;-73
2023/08/16 12:48:43;;;;;;;3.03;0.98;;;26.30;44.30;;;;;;5029750;28;20052;-74